createdAt,value
2019-01-18T00:00:50.457Z,2.80
2019-01-18T00:03:21.823Z,2.83
2019-01-18T00:05:49.484Z,2.58
2019-01-18T00:08:16.949Z,2.80
2019-01-18T00:10:44.589Z,2.70
2019-01-18T00:13:12.163Z,2.42
2019-01-18T00:15:39.609Z,2.85
2019-01-18T00:18:07.360Z,3.98
2019-01-18T00:20:34.901Z,2.90
2019-01-18T00:23:02.489Z,2.37
2019-01-18T00:25:29.989Z,2.83
2019-01-18T00:27:57.409Z,3.08
2019-01-18T00:30:24.877Z,2.85
2019-01-18T00:32:52.334Z,3.03
2019-01-18T00:35:19.868Z,3.13
2019-01-18T00:37:47.305Z,3.30
2019-01-18T00:40:15.294Z,3.30
2019-01-18T00:42:42.730Z,2.75
2019-01-18T00:45:11.907Z,2.40
2019-01-18T00:47:39.345Z,3.10
2019-01-18T00:50:09.210Z,2.40
2019-01-18T00:52:36.641Z,3.55
2019-01-18T00:55:05.166Z,2.87
2019-01-18T00:57:32.709Z,3.10
2019-01-18T01:00:00.248Z,2.60
2019-01-18T01:02:27.900Z,2.83
2019-01-18T01:04:55.324Z,2.60
2019-01-18T01:07:22.751Z,2.70
2019-01-18T01:09:50.333Z,2.40
2019-01-18T01:12:18.075Z,2.83
2019-01-18T01:14:45.485Z,2.70
2019-01-18T01:17:12.943Z,2.40
2019-01-18T01:19:40.366Z,2.90
2019-01-18T01:22:07.922Z,2.73
2019-01-18T01:24:35.385Z,3.00
2019-01-18T01:27:02.856Z,3.00
2019-01-18T01:29:30.298Z,2.80
2019-01-18T01:31:57.720Z,2.90
2019-01-18T01:34:25.364Z,2.67
2019-01-18T01:36:52.783Z,2.97
2019-01-18T01:39:20.229Z,3.30
2019-01-18T01:41:47.654Z,3.47
2019-01-18T01:44:15.705Z,3.33
2019-01-18T01:46:43.321Z,3.33
2019-01-18T01:49:10.914Z,3.77
2019-01-18T01:51:38.329Z,4.60
2019-01-18T01:54:05.806Z,3.10
2019-01-18T01:56:33.248Z,3.83
2019-01-18T01:59:00.777Z,3.30
2019-01-18T02:01:28.341Z,4.45
2019-01-18T02:03:55.873Z,3.60
2019-01-18T02:06:23.285Z,3.67
2019-01-18T02:08:50.708Z,3.23
2019-01-18T02:11:18.229Z,3.70
2019-01-18T02:13:45.749Z,3.10
2019-01-18T02:16:13.442Z,3.63
2019-01-18T02:18:40.956Z,3.20
2019-01-18T02:21:08.423Z,3.50
2019-01-18T02:23:36.906Z,3.30
2019-01-18T02:26:04.326Z,3.90
2019-01-18T02:28:31.767Z,3.50
2019-01-18T02:30:59.213Z,3.20
2019-01-18T02:33:26.706Z,3.60
2019-01-18T02:35:54.325Z,4.12
2019-01-18T02:38:21.787Z,3.57
2019-01-18T02:40:49.224Z,3.20
2019-01-18T02:43:17.876Z,4.47
2019-01-18T02:45:45.352Z,3.50
2019-01-18T02:48:15.769Z,3.05
2019-01-18T02:50:43.344Z,3.80
2019-01-18T02:53:10.757Z,3.47
2019-01-18T02:55:38.226Z,4.10
2019-01-18T02:58:05.675Z,2.83
2019-01-18T03:00:33.240Z,2.63
2019-01-18T03:03:00.774Z,3.07
2019-01-18T03:05:28.353Z,3.23
2019-01-18T03:07:55.777Z,2.87
2019-01-18T03:10:25.468Z,3.07
2019-01-18T03:12:52.891Z,2.43
2019-01-18T03:15:20.325Z,3.13
2019-01-18T03:17:47.769Z,2.90
2019-01-18T03:20:15.803Z,2.30
2019-01-18T03:22:43.306Z,2.50
2019-01-18T03:25:13.339Z,2.58
2019-01-18T03:27:40.917Z,3.50
2019-01-18T03:30:18.554Z,2.27
2019-01-18T03:32:40.742Z,3.03
2019-01-18T03:35:09.674Z,2.73
2019-01-18T03:37:37.117Z,3.10
2019-01-18T03:40:05.261Z,2.97
2019-01-18T03:42:35.426Z,3.90
2019-01-18T03:45:03.921Z,3.43
2019-01-18T03:47:31.365Z,2.35
2019-01-18T03:49:58.811Z,3.35
2019-01-18T03:52:26.239Z,3.07
2019-01-18T03:54:53.687Z,2.25
2019-01-18T03:57:21.202Z,2.72
2019-01-18T03:59:48.718Z,2.58
2019-01-18T04:02:16.321Z,3.40
2019-01-18T04:04:43.878Z,3.07
2019-01-18T04:07:11.288Z,2.87
2019-01-18T04:09:38.861Z,3.30
2019-01-18T04:12:06.274Z,2.63
2019-01-18T04:14:33.791Z,3.10
2019-01-18T04:17:01.223Z,2.87
2019-01-18T04:19:28.694Z,3.63
2019-01-18T04:21:56.238Z,3.40
2019-01-18T04:24:23.682Z,3.07
2019-01-18T04:26:51.089Z,2.83
2019-01-18T04:29:18.521Z,3.17
2019-01-18T04:31:46.045Z,3.58
2019-01-18T04:34:13.561Z,3.30
2019-01-18T04:36:41.134Z,3.40
2019-01-18T04:39:08.647Z,3.20
2019-01-18T04:41:36.136Z,2.73
2019-01-18T04:44:03.779Z,3.55
2019-01-18T04:46:31.299Z,3.45
2019-01-18T04:48:58.787Z,2.83
2019-01-18T04:51:26.288Z,3.10
2019-01-18T04:53:53.805Z,3.40
2019-01-18T04:56:21.519Z,3.20
2019-01-18T04:58:49.012Z,3.80
2019-01-18T05:01:16.484Z,2.92
2019-01-18T05:03:44.317Z,2.93
2019-01-18T05:06:11.741Z,3.03
2019-01-18T05:08:39.159Z,3.40
2019-01-18T05:11:06.676Z,2.90
2019-01-18T05:13:34.097Z,2.47
2019-01-18T05:16:02.824Z,3.43
2019-01-18T05:18:30.278Z,3.13
2019-01-18T05:20:57.736Z,3.10
2019-01-18T05:23:25.299Z,3.13
2019-01-18T05:25:52.727Z,3.20
2019-01-18T05:28:20.229Z,4.00
2019-01-18T05:30:48.026Z,3.35
2019-01-18T05:33:15.656Z,4.37
2019-01-18T05:35:43.120Z,3.20
2019-01-18T05:38:12.973Z,3.80
2019-01-18T05:40:40.388Z,3.30
2019-01-18T05:43:08.420Z,3.50
2019-01-18T05:45:35.835Z,2.97
2019-01-18T05:48:03.302Z,3.23
2019-01-18T05:50:30.790Z,3.30
2019-01-18T05:53:00.158Z,3.80
2019-01-18T05:55:27.590Z,3.97
2019-01-18T05:57:55.133Z,3.80
2019-01-18T06:00:39.542Z,4.23
2019-01-18T06:03:07.070Z,3.00
2019-01-18T06:05:37.038Z,3.60
2019-01-18T06:08:04.458Z,4.25
2019-01-18T06:10:31.922Z,3.80
2019-01-18T06:12:59.329Z,4.30
2019-01-18T06:15:26.937Z,3.37
2019-01-18T06:17:54.466Z,3.30
2019-01-18T06:20:21.958Z,3.92
2019-01-18T06:22:49.437Z,3.70
2019-01-18T06:25:16.989Z,4.33
2019-01-18T06:27:44.523Z,3.72
2019-01-18T06:30:14.300Z,3.27
2019-01-18T06:32:41.941Z,3.75
2019-01-18T06:35:09.781Z,3.95
2019-01-18T06:37:37.202Z,3.77
2019-01-18T06:40:06.609Z,3.57
2019-01-18T06:42:34.015Z,4.17
2019-01-18T06:45:01.472Z,3.33
2019-01-18T06:47:29.064Z,3.90
2019-01-18T06:49:56.597Z,4.80
2019-01-18T06:52:24.099Z,4.33
2019-01-18T06:54:51.556Z,4.30
2019-01-18T06:57:18.997Z,4.63
2019-01-18T06:59:46.440Z,3.90
2019-01-18T07:02:13.864Z,4.20
2019-01-18T07:04:42.398Z,4.00
2019-01-18T07:07:09.955Z,4.37
2019-01-18T07:09:37.389Z,4.87
2019-01-18T07:12:04.850Z,4.20
2019-01-18T07:14:32.279Z,5.50
2019-01-18T07:16:59.729Z,5.20
2019-01-18T07:19:27.364Z,6.60
2019-01-18T07:21:54.809Z,6.05
2019-01-18T07:24:22.269Z,6.25
2019-01-18T07:26:49.758Z,5.47
2019-01-18T07:29:17.894Z,6.22
2019-01-18T07:31:46.557Z,5.83
2019-01-18T07:34:14.083Z,4.85
2019-01-18T07:36:41.733Z,7.67
2019-01-18T07:39:09.209Z,5.30
2019-01-18T07:41:36.670Z,6.67
2019-01-18T07:44:04.421Z,5.40
2019-01-18T07:46:32.001Z,5.62
2019-01-18T07:48:59.505Z,6.33
2019-01-18T07:51:26.866Z,5.90
2019-01-18T07:53:54.361Z,5.75
2019-01-18T07:56:21.846Z,5.65
2019-01-18T07:58:49.293Z,5.53
2019-01-18T08:01:22.024Z,6.15
2019-01-18T08:03:46.103Z,5.10
2019-01-18T08:06:13.562Z,5.73
2019-01-18T08:08:41.164Z,5.23
2019-01-18T08:11:08.568Z,5.00
2019-01-18T08:13:36.002Z,4.93
2019-01-18T08:16:03.517Z,4.97
2019-01-18T08:18:30.970Z,5.77
2019-01-18T08:20:58.726Z,5.20
2019-01-18T08:23:28.913Z,4.80
2019-01-18T08:25:56.429Z,6.00
2019-01-18T08:28:30.290Z,5.00
2019-01-18T08:30:59.023Z,5.87
2019-01-18T08:33:30.145Z,5.20
2019-01-18T08:36:11.495Z,5.50
2019-01-18T08:38:38.922Z,4.63
2019-01-18T08:41:06.530Z,5.17
2019-01-18T08:43:34.395Z,5.23
2019-01-18T08:46:05.142Z,4.70
2019-01-18T08:48:33.728Z,5.00
2019-01-18T08:51:02.287Z,5.70
2019-01-18T08:53:29.724Z,5.13
2019-01-18T08:55:57.407Z,5.03
2019-01-18T08:58:24.822Z,5.13
2019-01-18T09:00:53.300Z,5.50
2019-01-18T09:03:20.808Z,5.67
2019-01-18T09:05:48.337Z,5.53
2019-01-18T09:08:15.843Z,5.17
2019-01-18T09:10:43.425Z,5.53
2019-01-18T09:13:10.853Z,5.70
2019-01-18T09:15:38.293Z,5.70
2019-01-18T09:18:06.072Z,5.10
2019-01-18T09:20:34.776Z,5.90
2019-01-18T09:23:02.358Z,5.33
2019-01-18T09:25:29.852Z,5.57
2019-01-18T09:27:57.495Z,6.23
2019-01-18T09:30:27.835Z,5.97
2019-01-18T09:32:55.685Z,5.80
2019-01-18T09:35:23.986Z,5.23
2019-01-18T09:37:51.676Z,5.87
2019-01-18T09:40:24.051Z,6.20
2019-01-18T09:43:02.172Z,6.03
2019-01-18T09:45:29.685Z,5.50
2019-01-18T09:47:57.165Z,6.00
2019-01-18T09:50:29.144Z,5.90
2019-01-18T09:52:57.252Z,5.23
2019-01-18T09:55:24.712Z,6.03
2019-01-18T09:57:52.382Z,5.20
2019-01-18T10:00:22.292Z,5.43
2019-01-18T10:02:49.838Z,5.93
2019-01-18T10:05:17.623Z,6.90
2019-01-18T10:07:45.057Z,6.57
2019-01-18T10:10:14.934Z,6.73
2019-01-18T10:12:42.471Z,6.20
2019-01-18T10:15:13.113Z,5.90
2019-01-18T10:17:40.596Z,5.70
2019-01-18T10:20:10.225Z,6.40
2019-01-18T10:22:37.869Z,5.77
2019-01-18T10:25:07.265Z,4.90
2019-01-18T10:27:34.921Z,4.77
2019-01-18T10:30:02.546Z,5.20
2019-01-18T10:32:30.218Z,5.30
2019-01-18T10:34:57.770Z,6.00
2019-01-18T10:37:25.445Z,4.67
2019-01-18T10:39:52.890Z,4.67
2019-01-18T10:42:20.497Z,4.53
2019-01-18T10:44:48.048Z,4.33
2019-01-18T10:47:15.504Z,3.70
2019-01-18T10:49:42.939Z,4.30
2019-01-18T10:52:10.379Z,3.83
2019-01-18T10:54:37.868Z,5.40
2019-01-18T10:57:05.299Z,4.17
2019-01-18T10:59:32.721Z,4.30
2019-01-18T11:02:06.957Z,4.47
2019-01-18T11:04:29.632Z,4.40
2019-01-18T11:06:57.058Z,5.13
2019-01-18T11:09:24.486Z,5.27
2019-01-18T11:11:51.991Z,3.80
2019-01-18T11:14:19.492Z,4.67
2019-01-18T11:16:46.980Z,4.10
2019-01-18T11:19:14.625Z,4.40
2019-01-18T11:21:42.349Z,4.20
2019-01-18T11:24:09.906Z,3.67
2019-01-18T11:26:37.469Z,4.00
2019-01-18T11:29:04.954Z,5.17
2019-01-18T11:31:32.385Z,3.57
2019-01-18T11:33:59.829Z,3.70
2019-01-18T11:36:27.268Z,2.73
2019-01-18T11:38:54.738Z,2.97
2019-01-18T11:41:22.201Z,3.50
2019-01-18T11:43:49.745Z,3.63
2019-01-18T11:46:17.363Z,3.40
2019-01-18T11:48:44.797Z,4.03
2019-01-18T11:51:12.505Z,3.73
2019-01-18T11:53:40.910Z,3.40
2019-01-18T11:56:08.544Z,4.30
2019-01-18T11:58:35.980Z,4.00
2019-01-18T12:01:04.660Z,3.30
2019-01-18T12:03:32.215Z,3.30
2019-01-18T12:05:59.663Z,3.93
2019-01-18T12:08:27.153Z,3.90
2019-01-18T12:10:54.494Z,3.87
2019-01-18T12:13:21.926Z,4.20
2019-01-18T12:15:49.437Z,4.10
2019-01-18T12:18:16.859Z,4.60
2019-01-18T12:20:44.580Z,4.90
2019-01-18T12:23:12.101Z,4.67
2019-01-18T12:25:39.648Z,3.67
2019-01-18T12:28:07.061Z,3.80
2019-01-18T12:30:35.225Z,3.60
2019-01-18T12:33:04.089Z,3.20
2019-01-18T12:35:31.557Z,2.73
2019-01-18T12:37:58.993Z,3.40
2019-01-18T12:40:26.420Z,4.20
2019-01-18T12:42:53.998Z,3.47
2019-01-18T12:45:22.033Z,3.70
2019-01-18T12:47:49.478Z,3.90
2019-01-18T12:50:22.277Z,3.77
2019-01-18T12:52:50.266Z,4.03
2019-01-18T12:55:17.845Z,3.80
2019-01-18T12:57:45.397Z,4.50
2019-01-18T13:00:15.404Z,3.90
2019-01-18T13:02:42.865Z,3.87
2019-01-18T13:05:12.881Z,3.97
2019-01-18T13:07:40.421Z,3.33
2019-01-18T13:10:11.971Z,3.80
2019-01-18T13:12:37.538Z,3.23
2019-01-18T13:15:09.152Z,3.10
2019-01-18T13:17:36.648Z,4.17
2019-01-18T13:20:04.829Z,3.70
2019-01-18T13:22:32.310Z,3.67
2019-01-18T13:24:59.823Z,4.00
2019-01-18T13:27:27.421Z,4.03
2019-01-18T13:29:56.242Z,4.10
2019-01-18T13:32:24.025Z,4.13
2019-01-18T13:34:51.665Z,4.10
2019-01-18T13:37:20.405Z,4.37
2019-01-18T13:39:47.989Z,4.20
2019-01-18T13:42:15.719Z,3.77
2019-01-18T13:44:43.691Z,4.50
2019-01-18T13:47:18.113Z,4.23
2019-01-18T13:49:41.041Z,4.50
2019-01-18T13:52:09.335Z,3.73
2019-01-18T13:54:36.929Z,4.87
2019-01-18T13:57:04.518Z,3.90
2019-01-18T13:59:33.096Z,4.10
2019-01-18T14:02:01.213Z,4.33
2019-01-18T14:04:28.695Z,3.47
2019-01-18T14:06:56.154Z,3.37
2019-01-18T14:09:23.688Z,2.93
2019-01-18T14:11:55.762Z,3.43
2019-01-18T14:14:21.235Z,3.00
2019-01-18T14:16:48.692Z,3.80
2019-01-18T14:19:16.289Z,3.20
2019-01-18T14:21:43.813Z,3.30
2019-01-18T14:24:11.376Z,3.60
2019-01-18T14:26:38.868Z,6.67
2019-01-18T14:29:06.579Z,2.80
2019-01-18T14:31:34.116Z,3.60
2019-01-18T14:34:01.663Z,3.47
2019-01-18T14:36:29.148Z,3.57
2019-01-18T14:38:56.645Z,3.37
2019-01-18T14:41:24.474Z,3.60
2019-01-18T14:43:52.387Z,4.20
2019-01-18T14:46:20.213Z,4.17
2019-01-18T14:48:47.706Z,3.87
2019-01-18T14:51:15.614Z,4.63
2019-01-18T14:53:43.065Z,3.93
2019-01-18T14:56:10.582Z,4.47
2019-01-18T14:58:38.039Z,4.60
2019-01-18T15:01:05.461Z,4.00
2019-01-18T15:03:32.966Z,4.60
2019-01-18T15:06:00.531Z,3.90
2019-01-18T15:08:28.141Z,4.40
2019-01-18T15:10:55.594Z,3.70
2019-01-18T15:13:23.429Z,3.93
2019-01-18T15:15:50.925Z,4.47
2019-01-18T15:18:19.401Z,4.77
2019-01-18T15:20:46.857Z,3.67
2019-01-18T15:23:14.501Z,4.33
2019-01-18T15:25:41.973Z,4.47
2019-01-18T15:28:09.470Z,4.50
2019-01-18T15:30:36.930Z,4.07
2019-01-18T15:33:09.031Z,10.50
2019-01-18T15:35:35.882Z,14.53
2019-01-18T15:38:04.303Z,10.17
2019-01-18T15:40:33.879Z,5.47
2019-01-18T15:43:02.431Z,6.70
2019-01-18T15:45:29.978Z,5.43
2019-01-18T15:47:57.704Z,6.50
2019-01-18T15:50:27.070Z,4.70
2019-01-18T15:52:55.930Z,4.90
2019-01-18T15:55:23.533Z,5.07
2019-01-18T15:57:51.047Z,5.37
2019-01-18T16:00:24.040Z,4.87
2019-01-18T16:02:51.758Z,4.33
2019-01-18T16:05:19.473Z,4.90
2019-01-18T16:07:47.997Z,4.30
2019-01-18T16:10:15.620Z,4.40
2019-01-18T16:12:43.477Z,5.23
2019-01-18T16:15:11.370Z,7.90
2019-01-18T16:17:39.527Z,9.97
2019-01-18T16:20:11.030Z,19.93
2019-01-18T16:22:38.549Z,24.10
2019-01-18T16:25:10.585Z,18.80
2019-01-18T16:27:38.281Z,15.00
2019-01-18T16:30:08.861Z,13.33
2019-01-18T16:32:36.335Z,16.30
2019-01-18T16:35:04.492Z,14.13
2019-01-18T16:37:31.929Z,8.03
2019-01-18T16:39:59.429Z,7.40
2019-01-18T16:42:27.097Z,7.53
2019-01-18T16:44:54.683Z,6.70
2019-01-18T16:47:22.510Z,6.43
2019-01-18T16:49:49.987Z,6.07
2019-01-18T16:52:17.637Z,7.67
2019-01-18T16:54:45.306Z,6.78
2019-01-18T16:57:12.842Z,6.92
2019-01-18T16:59:40.357Z,5.07
2019-01-18T17:02:07.863Z,6.12
2019-01-18T17:04:35.338Z,6.83
2019-01-18T17:07:03.336Z,6.45
2019-01-18T17:09:30.797Z,7.47
2019-01-18T17:11:58.349Z,8.48
2019-01-18T17:14:26.005Z,6.90
2019-01-18T17:16:53.483Z,6.75
2019-01-18T17:19:21.038Z,6.12
2019-01-18T17:21:48.488Z,5.78
2019-01-18T17:24:16.093Z,5.42
2019-01-18T17:26:43.655Z,5.30
2019-01-18T17:29:11.118Z,5.67
2019-01-18T17:31:38.826Z,7.40
2019-01-18T17:34:06.364Z,23.02
2019-01-18T17:36:47.158Z,9.60
2019-01-18T17:39:51.864Z,7.30
2019-01-18T17:42:37.147Z,8.10
2019-01-18T17:45:43.374Z,8.70
2019-01-18T17:48:46.666Z,9.65
2019-01-18T17:51:57.429Z,8.88
2019-01-18T17:54:40.312Z,10.10
2019-01-18T17:57:43.087Z,8.43
2019-01-18T18:00:53.869Z,9.03
2019-01-18T18:04:02.029Z,10.72
2019-01-18T18:07:09.668Z,9.33
2019-01-18T18:10:17.551Z,7.85
2019-01-18T18:12:56.105Z,10.93
2019-01-18T18:16:20.271Z,11.65
2019-01-18T18:19:35.986Z,10.88
2019-01-18T18:22:31.190Z,11.03
2019-01-18T18:25:27.635Z,11.78
2019-01-18T18:28:14.235Z,11.40
2019-01-18T18:30:57.851Z,13.25
2019-01-18T18:34:05.761Z,11.25
2019-01-18T18:37:04.109Z,10.78
2019-01-18T18:40:19.933Z,9.08
2019-01-18T18:43:19.714Z,11.12
2019-01-18T18:46:25.024Z,12.90
2019-01-18T18:49:19.792Z,12.40
2019-01-18T18:52:21.662Z,11.93
2019-01-18T18:55:21.705Z,12.65
2019-01-18T18:58:35.651Z,11.30
2019-01-18T19:01:32.291Z,10.03
2019-01-18T19:04:13.310Z,9.83
2019-01-18T19:07:28.411Z,9.33
2019-01-18T19:10:49.746Z,11.38
2019-01-18T19:13:42.592Z,10.80
2019-01-18T19:16:46.811Z,12.00
2019-01-18T19:19:59.342Z,11.33
2019-01-18T19:23:32.833Z,10.70
2019-01-18T19:26:29.900Z,11.03
2019-01-18T19:29:46.840Z,10.32
2019-01-18T19:33:00.940Z,10.78
2019-01-18T19:36:04.381Z,12.47
2019-01-18T19:39:09.908Z,14.50
2019-01-18T19:42:20.793Z,13.93
2019-01-18T19:45:32.473Z,11.90
2019-01-18T19:48:56.799Z,12.45
2019-01-18T19:52:09.194Z,11.50
2019-01-18T19:54:45.674Z,11.12
2019-01-18T19:57:54.792Z,11.80
2019-01-18T20:00:56.063Z,10.38
2019-01-18T20:03:57.529Z,12.98
2019-01-18T20:07:05.414Z,10.50
2019-01-18T20:10:17.203Z,11.20
2019-01-18T20:13:19.765Z,10.05
2019-01-18T20:16:26.247Z,9.48
2019-01-18T20:19:36.662Z,9.63
2019-01-18T20:22:31.205Z,10.23
2019-01-18T20:25:40.537Z,9.35
2019-01-18T20:28:19.339Z,9.15
2019-01-18T20:31:16.540Z,9.23
2019-01-18T20:34:23.782Z,7.83
2019-01-18T20:37:12.164Z,7.30
2019-01-18T20:40:31.834Z,8.88
2019-01-18T20:43:35.644Z,7.90
2019-01-18T20:47:05.808Z,7.70
2019-01-18T20:50:20.400Z,8.15
2019-01-18T20:53:41.904Z,8.98
2019-01-18T20:56:35.545Z,9.78
2019-01-18T20:59:49.462Z,8.80
2019-01-18T21:02:51.558Z,9.88
2019-01-18T21:05:34.650Z,9.23
2019-01-18T21:08:53.194Z,9.18
2019-01-18T21:11:55.445Z,10.03
2019-01-18T21:15:09.394Z,8.55
2019-01-18T21:18:33.943Z,10.08
2019-01-18T21:21:35.969Z,9.88
2019-01-18T21:25:06.558Z,9.75
2019-01-18T21:28:00.236Z,8.83
2019-01-18T21:30:49.474Z,10.08
2019-01-18T21:34:18.853Z,10.60
2019-01-18T21:37:08.211Z,9.63
2019-01-18T21:40:04.257Z,9.08
2019-01-18T21:42:58.577Z,10.25
2019-01-18T21:46:11.080Z,11.18
2019-01-18T21:49:07.363Z,10.05
2019-01-18T21:52:23.851Z,10.90
2019-01-18T21:55:18.234Z,10.35
2019-01-18T21:58:39.785Z,10.40
2019-01-18T22:01:53.733Z,11.15
2019-01-18T22:04:31.061Z,13.45
2019-01-18T22:07:36.458Z,29.90
2019-01-18T22:11:09.170Z,12.30
2019-01-18T22:14:34.047Z,10.13
2019-01-18T22:17:19.506Z,9.53
2019-01-18T22:20:52.973Z,10.60
2019-01-18T22:23:28.670Z,9.98
2019-01-18T22:26:50.970Z,10.43
2019-01-18T22:30:03.143Z,7.70
2019-01-18T22:33:14.580Z,7.97
2019-01-18T22:36:06.927Z,8.70
2019-01-18T22:39:37.178Z,7.28
2019-01-18T22:42:31.047Z,7.80
2019-01-18T22:45:23.372Z,10.13
2019-01-18T22:48:27.684Z,10.25
2019-01-18T22:51:43.146Z,11.15
2019-01-18T22:54:46.907Z,9.75
2019-01-18T22:58:01.748Z,10.03
2019-01-18T23:01:16.648Z,9.60
2019-01-18T23:04:08.076Z,9.38
2019-01-18T23:07:39.535Z,8.33
2019-01-18T23:10:45.346Z,8.43
2019-01-18T23:14:03.044Z,8.63
2019-01-18T23:17:05.391Z,8.95
2019-01-18T23:20:00.242Z,9.98
2019-01-18T23:22:57.360Z,8.93
2019-01-18T23:25:46.485Z,8.85
2019-01-18T23:29:13.977Z,8.70
2019-01-18T23:32:41.047Z,7.25
2019-01-18T23:35:41.465Z,8.15
2019-01-18T23:38:43.111Z,6.90
2019-01-18T23:41:32.568Z,8.53
2019-01-18T23:44:39.174Z,9.30
2019-01-18T23:47:23.069Z,9.03
2019-01-18T23:50:22.318Z,9.00
2019-01-18T23:53:13.469Z,7.05
2019-01-18T23:56:06.674Z,9.13
2019-01-18T23:58:51.557Z,8.58
